sensor_id;sensor_type;location;lat;lon;timestamp;pressure;altitude;pressure_sealevel;temperature;humidity
59513;BME280;45330;51.634;5.562;2023-02-28T00:00:08;103039.00;;;-1.86;100.00
59513;BME280;45330;51.634;5.562;2023-02-28T00:02:39;103037.88;;;-1.90;100.00
59513;BME280;45330;51.634;5.562;2023-02-28T00:05:06;103052.41;;;-1.89;100.00
59513;BME280;45330;51.634;5.562;2023-02-28T00:07:32;103047.19;;;-1.91;100.00
59513;BME280;45330;51.634;5.562;2023-02-28T00:09:57;103038.78;;;-2.00;100.00
59513;BME280;45330;51.634;5.562;2023-02-28T00:12:23;103031.03;;;-2.12;100.00
59513;BME280;45330;51.634;5.562;2023-02-28T00:14:49;103052.84;;;-2.05;100.00
59513;BME280;45330;51.634;5.562;2023-02-28T00:17:15;103050.81;;;-2.09;100.00
59513;BME280;45330;51.634;5.562;2023-02-28T00:19:43;103028.66;;;-2.31;100.00
59513;BME280;45330;51.634;5.562;2023-02-28T00:22:09;103047.13;;;-2.23;100.00
59513;BME280;45330;51.634;5.562;2023-02-28T00:24:34;103044.22;;;-2.28;100.00
59513;BME280;45330;51.634;5.562;2023-02-28T00:27:00;103018.97;;;-2.45;100.00
59513;BME280;45330;51.634;5.562;2023-02-28T00:29:25;103034.41;;;-2.44;100.00
59513;BME280;45330;51.634;5.562;2023-02-28T00:31:50;103022.03;;;-2.49;100.00
59513;BME280;45330;51.634;5.562;2023-02-28T00:34:16;103030.59;;;-2.49;100.00
59513;BME280;45330;51.634;5.562;2023-02-28T00:36:41;103021.66;;;-2.54;100.00
59513;BME280;45330;51.634;5.562;2023-02-28T00:39:10;103026.91;;;-2.52;100.00
59513;BME280;45330;51.634;5.562;2023-02-28T00:41:36;103030.72;;;-2.47;100.00
59513;BME280;45330;51.634;5.562;2023-02-28T00:44:01;103037.59;;;-2.46;100.00
59513;BME280;45330;51.634;5.562;2023-02-28T00:46:26;103037.88;;;-2.43;100.00
59513;BME280;45330;51.634;5.562;2023-02-28T00:48:52;103038.50;;;-2.46;100.00
59513;BME280;45330;51.634;5.562;2023-02-28T00:51:17;103037.59;;;-2.46;100.00
59513;BME280;45330;51.634;5.562;2023-02-28T00:53:42;103038.50;;;-2.46;100.00
59513;BME280;45330;51.634;5.562;2023-02-28T00:56:08;103007.28;;;-2.64;100.00
59513;BME280;45330;51.634;5.562;2023-02-28T00:58:33;103043.22;;;-2.50;100.00
59513;BME280;45330;51.634;5.562;2023-02-28T01:00:59;103044.75;;;-2.52;100.00
59513;BME280;45330;51.634;5.562;2023-02-28T01:03:24;103013.00;;;-2.66;100.00
59513;BME280;45330;51.634;5.562;2023-02-28T01:05:50;103027.16;;;-2.60;100.00
59513;BME280;45330;51.634;5.562;2023-02-28T01:08:18;103035.81;;;-2.58;100.00
59513;BME280;45330;51.634;5.562;2023-02-28T01:10:43;103039.03;;;-2.60;100.00
59513;BME280;45330;51.634;5.562;2023-02-28T01:13:08;103052.50;;;-2.61;100.00
59513;BME280;45330;51.634;5.562;2023-02-28T01:15:34;103049.59;;;-2.66;100.00
59513;BME280;45330;51.634;5.562;2023-02-28T01:17:59;103053.78;;;-2.66;100.00
59513;BME280;45330;51.634;5.562;2023-02-28T01:20:25;103057.63;;;-2.71;100.00
59513;BME280;45330;51.634;5.562;2023-02-28T01:22:50;103056.34;;;-2.77;100.00
59513;BME280;45330;51.634;5.562;2023-02-28T01:25:15;103033.75;;;-2.93;100.00
59513;BME280;45330;51.634;5.562;2023-02-28T01:27:41;103042.69;;;-2.87;100.00
59513;BME280;45330;51.634;5.562;2023-02-28T01:30:08;103057.72;;;-2.80;100.00
59513;BME280;45330;51.634;5.562;2023-02-28T01:32:34;103035.03;;;-2.87;100.00
59513;BME280;45330;51.634;5.562;2023-02-28T01:35:00;103052.91;;;-2.67;100.00
59513;BME280;45330;51.634;5.562;2023-02-28T01:37:26;103055.19;;;-2.60;100.00
59513;BME280;45330;51.634;5.562;2023-02-28T01:39:52;103053.41;;;-2.61;100.00
59513;BME280;45330;51.634;5.562;2023-02-28T01:42:17;103048.31;;;-2.61;100.00
59513;BME280;45330;51.634;5.562;2023-02-28T01:47:39;103021.41;;;-2.67;100.00
59513;BME280;45330;51.634;5.562;2023-02-28T01:50:09;103039.50;;;-2.54;100.00
59513;BME280;45330;51.634;5.562;2023-02-28T01:52:37;103039.88;;;-2.49;100.00
59513;BME280;45330;51.634;5.562;2023-02-28T01:55:05;103029.19;;;-2.55;100.00
59513;BME280;45330;51.634;5.562;2023-02-28T01:57:38;103018.63;;;-2.60;100.00
59513;BME280;45330;51.634;5.562;2023-02-28T02:00:13;103027.13;;;-2.49;100.00
59513;BME280;45330;51.634;5.562;2023-02-28T02:02:42;103022.28;;;-2.46;100.00
59513;BME280;45330;51.634;5.562;2023-02-28T02:05:23;103043.56;;;-2.25;100.00
59513;BME280;45330;51.634;5.562;2023-02-28T02:07:52;103043.16;;;-2.19;100.00
59513;BME280;45330;51.634;5.562;2023-02-28T02:10:40;103046.34;;;-2.12;100.00
59513;BME280;45330;51.634;5.562;2023-02-28T02:23:25;103025.63;;;-1.84;100.00
59513;BME280;45330;51.634;5.562;2023-02-28T02:34:23;103027.06;;;-1.65;100.00
59513;BME280;45330;51.634;5.562;2023-02-28T02:39:37;103003.47;;;-1.73;100.00
59513;BME280;45330;51.634;5.562;2023-02-28T02:42:14;103029.56;;;-1.55;100.00
59513;BME280;45330;51.634;5.562;2023-02-28T02:45:10;103013.38;;;-1.56;100.00
59513;BME280;45330;51.634;5.562;2023-02-28T02:47:33;103023.16;;;-1.50;100.00
59513;BME280;45330;51.634;5.562;2023-02-28T02:50:05;103024.56;;;-1.43;100.00
59513;BME280;45330;51.634;5.562;2023-02-28T02:52:37;103019.56;;;-1.42;100.00
59513;BME280;45330;51.634;5.562;2023-02-28T02:55:05;103012.31;;;-1.47;100.00
59513;BME280;45330;51.634;5.562;2023-02-28T02:57:48;103013.00;;;-1.38;100.00
59513;BME280;45330;51.634;5.562;2023-02-28T03:00:18;103016.59;;;-1.36;100.00
59513;BME280;45330;51.634;5.562;2023-02-28T03:02:45;102984.41;;;-1.56;100.00
59513;BME280;45330;51.634;5.562;2023-02-28T03:06:01;102999.72;;;-1.56;100.00
59513;BME280;45330;51.634;5.562;2023-02-28T03:08:07;103029.00;;;-1.41;100.00
59513;BME280;45330;51.634;5.562;2023-02-28T03:10:38;103015.56;;;-1.38;100.00
59513;BME280;45330;51.634;5.562;2023-02-28T03:27:07;103023.84;;;-1.08;100.00
59513;BME280;45330;51.634;5.562;2023-02-28T03:29:40;103003.13;;;-1.11;100.00
59513;BME280;45330;51.634;5.562;2023-02-28T03:32:19;102997.69;;;-1.16;100.00
59513;BME280;45330;51.634;5.562;2023-02-28T03:34:56;103008.72;;;-1.05;100.00
59513;BME280;45330;51.634;5.562;2023-02-28T03:37:23;103009.72;;;-1.03;100.00
59513;BME280;45330;51.634;5.562;2023-02-28T03:39:56;103016.75;;;-1.00;100.00
59513;BME280;45330;51.634;5.562;2023-02-28T03:42:27;103033.97;;;-0.98;100.00
59513;BME280;45330;51.634;5.562;2023-02-28T03:44:58;103004.03;;;-1.11;100.00
59513;BME280;45330;51.634;5.562;2023-02-28T03:47:29;103019.53;;;-0.97;100.00
59513;BME280;45330;51.634;5.562;2023-02-28T03:52:43;103003.09;;;-1.01;100.00
59513;BME280;45330;51.634;5.562;2023-02-28T03:55:12;103024.22;;;-0.92;100.00
59513;BME280;45330;51.634;5.562;2023-02-28T04:00:24;103004.72;;;-1.01;100.00
59513;BME280;45330;51.634;5.562;2023-02-28T04:02:54;103026.88;;;-0.90;100.00
59513;BME280;45330;51.634;5.562;2023-02-28T04:05:21;102998.75;;;-1.02;100.00
59513;BME280;45330;51.634;5.562;2023-02-28T04:07:46;103014.00;;;-0.92;100.00
59513;BME280;45330;51.634;5.562;2023-02-28T04:10:12;103010.31;;;-0.95;100.00
59513;BME280;45330;51.634;5.562;2023-02-28T04:12:38;102994.41;;;-1.03;100.00
59513;BME280;45330;51.634;5.562;2023-02-28T04:15:04;102995.41;;;-1.01;100.00
59513;BME280;45330;51.634;5.562;2023-02-28T04:17:30;103004.31;;;-0.96;100.00
59513;BME280;45330;51.634;5.562;2023-02-28T04:19:55;103024.91;;;-0.82;100.00
59513;BME280;45330;51.634;5.562;2023-02-28T04:22:22;103022.38;;;-0.82;100.00
59513;BME280;45330;51.634;5.562;2023-02-28T04:24:50;103006.97;;;-0.94;100.00
59513;BME280;45330;51.634;5.562;2023-02-28T04:27:16;103025.81;;;-0.82;100.00
59513;BME280;45330;51.634;5.562;2023-02-28T04:29:41;103031.13;;;-0.79;100.00
59513;BME280;45330;51.634;5.562;2023-02-28T04:32:10;103022.38;;;-0.82;100.00
59513;BME280;45330;51.634;5.562;2023-02-28T04:34:35;103001.47;;;-0.89;100.00
59513;BME280;45330;51.634;5.562;2023-02-28T04:37:01;103002.22;;;-0.90;100.00
59513;BME280;45330;51.634;5.562;2023-02-28T04:39:28;102999.69;;;-0.90;100.00
59513;BME280;45330;51.634;5.562;2023-02-28T04:41:53;103031.63;;;-0.73;100.00
59513;BME280;45330;51.634;5.562;2023-02-28T04:44:19;103028.16;;;-0.73;100.00
59513;BME280;45330;51.634;5.562;2023-02-28T04:46:47;103035.06;;;-0.72;100.00
59513;BME280;45330;51.634;5.562;2023-02-28T04:49:13;103014.03;;;-0.80;100.00
59513;BME280;45330;51.634;5.562;2023-02-28T04:51:39;103043.88;;;-0.68;100.00
59513;BME280;45330;51.634;5.562;2023-02-28T04:54:04;103008.72;;;-0.83;100.00
59513;BME280;45330;51.634;5.562;2023-02-28T04:56:30;103035.53;;;-0.66;100.00
59513;BME280;45330;51.634;5.562;2023-02-28T04:58:55;103034.19;;;-0.73;100.00
59513;BME280;45330;51.634;5.562;2023-02-28T05:01:26;103040.53;;;-0.67;100.00
59513;BME280;45330;51.634;5.562;2023-02-28T05:03:53;103053.66;;;-0.63;100.00
59513;BME280;45330;51.634;5.562;2023-02-28T05:06:19;103018.34;;;-0.79;100.00
59513;BME280;45330;51.634;5.562;2023-02-28T05:08:46;103025.50;;;-0.75;100.00
59513;BME280;45330;51.634;5.562;2023-02-28T05:11:18;103042.28;;;-0.66;100.00
59513;BME280;45330;51.634;5.562;2023-02-28T05:13:44;103042.28;;;-0.66;100.00
59513;BME280;45330;51.634;5.562;2023-02-28T05:16:10;103047.41;;;-0.66;100.00
59513;BME280;45330;51.634;5.562;2023-02-28T05:18:35;103017.91;;;-0.85;100.00
59513;BME280;45330;51.634;5.562;2023-02-28T05:21:01;103048.31;;;-0.66;100.00
59513;BME280;45330;51.634;5.562;2023-02-28T05:23:27;103025.81;;;-0.82;100.00
59513;BME280;45330;51.634;5.562;2023-02-28T05:25:53;103023.03;;;-0.85;100.00
59513;BME280;45330;51.634;5.562;2023-02-28T05:28:19;103045.16;;;-0.74;100.00
59513;BME280;45330;51.634;5.562;2023-02-28T05:30:44;103041.75;;;-0.74;100.00
59513;BME280;45330;51.634;5.562;2023-02-28T05:33:11;103030.69;;;-0.85;100.00
59513;BME280;45330;51.634;5.562;2023-02-28T05:35:38;103015.88;;;-0.89;100.00
59513;BME280;45330;51.634;5.562;2023-02-28T05:38:04;103019.09;;;-0.92;100.00
59513;BME280;45330;51.634;5.562;2023-02-28T05:40:29;103028.44;;;-0.92;100.00
59513;BME280;45330;51.634;5.562;2023-02-28T05:42:55;103041.03;;;-0.83;100.00
59513;BME280;45330;51.634;5.562;2023-02-28T05:45:20;103049.84;;;-0.80;100.00
59513;BME280;45330;51.634;5.562;2023-02-28T05:47:45;103023.44;;;-0.91;100.00
59513;BME280;45330;51.634;5.562;2023-02-28T05:50:11;103049.28;;;-0.76;100.00
59513;BME280;45330;51.634;5.562;2023-02-28T05:52:37;103030.81;;;-0.83;100.00
59513;BME280;45330;51.634;5.562;2023-02-28T05:55:03;103031.34;;;-0.88;100.00
59513;BME280;45330;51.634;5.562;2023-02-28T05:57:28;103039.13;;;-0.86;100.00
59513;BME280;45330;51.634;5.562;2023-02-28T05:59:53;103056.06;;;-0.76;100.00
59513;BME280;45330;51.634;5.562;2023-02-28T06:02:19;103063.50;;;-0.79;100.00
59513;BME280;45330;51.634;5.562;2023-02-28T06:04:45;103042.63;;;-0.96;100.00
59513;BME280;45330;51.634;5.562;2023-02-28T06:07:11;103064.78;;;-0.84;100.00
59513;BME280;45330;51.634;5.562;2023-02-28T06:09:37;103042.63;;;-0.96;100.00
59513;BME280;45330;51.634;5.562;2023-02-28T06:12:04;103051.09;;;-0.97;100.00
59513;BME280;45330;51.634;5.562;2023-02-28T06:14:31;103069.03;;;-0.85;100.00
59513;BME280;45330;51.634;5.562;2023-02-28T06:16:57;103067.34;;;-0.84;100.00
59513;BME280;45330;51.634;5.562;2023-02-28T06:19:23;103062.50;;;-0.81;100.00
59513;BME280;45330;51.634;5.562;2023-02-28T06:21:51;103072.84;;;-0.80;100.00
59513;BME280;45330;51.634;5.562;2023-02-28T06:24:18;103047.09;;;-0.93;100.00
59513;BME280;45330;51.634;5.562;2023-02-28T06:26:44;103080.84;;;-0.75;100.00
59513;BME280;45330;51.634;5.562;2023-02-28T06:29:09;103077.31;;;-0.77;100.00
59513;BME280;45330;51.634;5.562;2023-02-28T06:31:34;103049.34;;;-0.86;100.00
59513;BME280;45330;51.634;5.562;2023-02-28T06:34:00;103072.19;;;-0.77;100.00
59513;BME280;45330;51.634;5.562;2023-02-28T06:36:26;103085.19;;;-0.74;100.00
59513;BME280;45330;51.634;5.562;2023-02-28T06:38:51;103082.88;;;-0.71;100.00
59513;BME280;45330;51.634;5.562;2023-02-28T06:41:21;103064.25;;;-0.80;100.00
59513;BME280;45330;51.634;5.562;2023-02-28T06:43:47;103059.94;;;-0.81;100.00
59513;BME280;45330;51.634;5.562;2023-02-28T06:46:13;103051.13;;;-0.85;100.00
59513;BME280;45330;51.634;5.562;2023-02-28T06:48:39;103081.06;;;-0.72;100.00
59513;BME280;45330;51.634;5.562;2023-02-28T06:51:06;103065.47;;;-0.87;100.00
59513;BME280;45330;51.634;5.562;2023-02-28T06:53:32;103077.31;;;-0.77;100.00
59513;BME280;45330;51.634;5.562;2023-02-28T06:55:58;103094.88;;;-0.70;100.00
59513;BME280;45330;51.634;5.562;2023-02-28T06:58:24;103096.78;;;-0.67;100.00
59513;BME280;45330;51.634;5.562;2023-02-28T07:00:51;103093.56;;;-0.65;100.00
59513;BME280;45330;51.634;5.562;2023-02-28T07:03:17;103082.31;;;-0.67;100.00
59513;BME280;45330;51.634;5.562;2023-02-28T07:05:43;103078.75;;;-0.69;100.00
59513;BME280;45330;51.634;5.562;2023-02-28T07:08:09;103064.53;;;-0.77;100.00
59513;BME280;45330;51.634;5.562;2023-02-28T07:10:37;103098.78;;;-0.63;100.00
59513;BME280;45330;51.634;5.562;2023-02-28T07:13:03;103091.69;;;-0.67;100.00
59513;BME280;45330;51.634;5.562;2023-02-28T07:15:29;103089.41;;;-0.75;100.00
59513;BME280;45330;51.634;5.562;2023-02-28T07:17:54;103088.63;;;-0.74;100.00
59513;BME280;45330;51.634;5.562;2023-02-28T07:20:21;103091.72;;;-0.78;100.00
59513;BME280;45330;51.634;5.562;2023-02-28T07:22:48;103097.75;;;-0.77;100.00
59513;BME280;45330;51.634;5.562;2023-02-28T07:25:20;103092.91;;;-0.84;100.00
59513;BME280;45330;51.634;5.562;2023-02-28T07:27:46;103085.94;;;-0.87;100.00
59513;BME280;45330;51.634;5.562;2023-02-28T07:30:12;103106.09;;;-0.68;100.00
59513;BME280;45330;51.634;5.562;2023-02-28T07:32:37;103112.03;;;-0.57;100.00
59513;BME280;45330;51.634;5.562;2023-02-28T07:35:03;103109.19;;;-0.50;100.00
59513;BME280;45330;51.634;5.562;2023-02-28T07:37:29;103114.41;;;-0.48;100.00
59513;BME280;45330;51.634;5.562;2023-02-28T07:39:56;103095.84;;;-0.46;100.00
59513;BME280;45330;51.634;5.562;2023-02-28T07:42:22;103110.66;;;-0.30;100.00
59513;BME280;45330;51.634;5.562;2023-02-28T07:44:47;103125.16;;;-0.19;100.00
59513;BME280;45330;51.634;5.562;2023-02-28T07:47:12;103100.00;;;-0.24;100.00
59513;BME280;45330;51.634;5.562;2023-02-28T07:49:38;103123.84;;;-0.02;100.00
59513;BME280;45330;51.634;5.562;2023-02-28T07:52:05;103103.25;;;-0.03;100.00
59513;BME280;45330;51.634;5.562;2023-02-28T07:54:31;103097.25;;;0.08;100.00
59513;BME280;45330;51.634;5.562;2023-02-28T07:56:56;103121.78;;;0.28;100.00
59513;BME280;45330;51.634;5.562;2023-02-28T07:59:21;103125.78;;;0.37;100.00
59513;BME280;45330;51.634;5.562;2023-02-28T08:01:47;103112.28;;;0.39;100.00
59513;BME280;45330;51.634;5.562;2023-02-28T08:04:15;103118.16;;;0.62;100.00
59513;BME280;45330;51.634;5.562;2023-02-28T08:06:41;103132.53;;;0.83;100.00
59513;BME280;45330;51.634;5.562;2023-02-28T08:09:06;103121.38;;;0.83;100.00
59513;BME280;45330;51.634;5.562;2023-02-28T08:11:32;103147.88;;;0.95;100.00
59513;BME280;45330;51.634;5.562;2023-02-28T08:13:57;103134.63;;;0.89;93.31
59513;BME280;45330;51.634;5.562;2023-02-28T08:16:23;103145.97;;;0.93;83.90
59513;BME280;45330;51.634;5.562;2023-02-28T08:18:50;103137.00;;;0.86;85.38
59513;BME280;45330;51.634;5.562;2023-02-28T08:21:15;103126.53;;;0.71;79.49
59513;BME280;45330;51.634;5.562;2023-02-28T08:23:41;103131.44;;;0.68;79.71
59513;BME280;45330;51.634;5.562;2023-02-28T08:26:06;103124.53;;;0.67;73.80
59513;BME280;45330;51.634;5.562;2023-02-28T08:28:32;103135.34;;;0.75;73.04
59513;BME280;45330;51.634;5.562;2023-02-28T08:30:57;103133.56;;;0.74;76.10
59513;BME280;45330;51.634;5.562;2023-02-28T08:33:24;103118.31;;;0.63;77.21
59513;BME280;45330;51.634;5.562;2023-02-28T08:35:52;103141.34;;;0.75;74.64
59513;BME280;45330;51.634;5.562;2023-02-28T08:38:18;103126.75;;;0.74;73.88
59513;BME280;45330;51.634;5.562;2023-02-28T08:40:44;103132.88;;;0.76;74.11
59513;BME280;45330;51.634;5.562;2023-02-28T08:43:09;103114.28;;;0.67;72.91
59513;BME280;45330;51.634;5.562;2023-02-28T08:45:34;103119.63;;;0.70;73.01
59513;BME280;45330;51.634;5.562;2023-02-28T08:48:00;103124.28;;;0.76;73.82
59513;BME280;45330;51.634;5.562;2023-02-28T08:50:25;103134.88;;;0.80;71.92
59513;BME280;45330;51.634;5.562;2023-02-28T08:52:50;103119.63;;;0.70;73.26
59513;BME280;45330;51.634;5.562;2023-02-28T08:55:16;103121.97;;;0.67;72.55
59513;BME280;45330;51.634;5.562;2023-02-28T08:57:41;103137.44;;;0.80;74.40
59513;BME280;45330;51.634;5.562;2023-02-28T09:00:08;103140.00;;;0.80;73.69
59513;BME280;45330;51.634;5.562;2023-02-28T09:02:35;103149.00;;;0.87;72.04
59513;BME280;45330;51.634;5.562;2023-02-28T09:05:02;103141.75;;;0.93;70.97
59513;BME280;45330;51.634;5.562;2023-02-28T09:07:28;103141.09;;;0.96;69.72
59513;BME280;45330;51.634;5.562;2023-02-28T09:09:53;103127.81;;;0.90;68.45
59513;BME280;45330;51.634;5.562;2023-02-28T09:12:24;103129.25;;;0.98;64.40
59513;BME280;45330;51.634;5.562;2023-02-28T09:14:51;103113.88;;;0.98;64.22
59513;BME280;45330;51.634;5.562;2023-02-28T09:17:17;103140.13;;;1.19;62.86
59513;BME280;45330;51.634;5.562;2023-02-28T09:19:42;103103.06;;;1.02;63.70
59513;BME280;45330;51.634;5.562;2023-02-28T09:22:09;103130.88;;;1.21;64.81
59513;BME280;45330;51.634;5.562;2023-02-28T09:24:35;103136.22;;;1.24;61.22
59513;BME280;45330;51.634;5.562;2023-02-28T09:27:01;103124.16;;;1.23;59.77
59513;BME280;45330;51.634;5.562;2023-02-28T09:29:26;103089.41;;;1.15;60.20
59513;BME280;45330;51.634;5.562;2023-02-28T09:31:51;103118.56;;;1.29;60.52
59513;BME280;45330;51.634;5.562;2023-02-28T09:34:17;103141.16;;;1.46;58.93
59513;BME280;45330;51.634;5.562;2023-02-28T09:36:42;103141.03;;;1.45;58.89
59513;BME280;45330;51.634;5.562;2023-02-28T09:39:08;103115.34;;;1.31;58.92
59513;BME280;45330;51.634;5.562;2023-02-28T09:41:39;103136.22;;;1.49;57.04
59513;BME280;45330;51.634;5.562;2023-02-28T09:44:18;103133.09;;;1.53;58.85
59513;BME280;45330;51.634;5.562;2023-02-28T09:46:50;103110.09;;;1.55;56.13
59513;BME280;45330;51.634;5.562;2023-02-28T09:49:20;103115.81;;;1.64;56.99
59513;BME280;45330;51.634;5.562;2023-02-28T09:54:23;103136.31;;;1.76;56.66
59513;BME280;45330;51.634;5.562;2023-02-28T09:57:13;103122.47;;;1.74;55.28
59513;BME280;45330;51.634;5.562;2023-02-28T10:00:06;103124.56;;;1.80;56.16
59513;BME280;45330;51.634;5.562;2023-02-28T10:05:50;103116.75;;;1.78;55.21
59513;BME280;45330;51.634;5.562;2023-02-28T10:08:28;103121.84;;;1.90;55.62
59513;BME280;45330;51.634;5.562;2023-02-28T10:11:01;103103.25;;;1.81;56.04
59513;BME280;45330;51.634;5.562;2023-02-28T10:16:31;103087.53;;;1.89;54.24
59513;BME280;45330;51.634;5.562;2023-02-28T10:19:12;103118.97;;;2.12;54.91
59513;BME280;45330;51.634;5.562;2023-02-28T10:21:56;103104.56;;;2.14;52.94
59513;BME280;45330;51.634;5.562;2023-02-28T10:24:35;103111.97;;;2.23;53.75
59513;BME280;45330;51.634;5.562;2023-02-28T10:27:13;103087.78;;;2.06;52.45
59513;BME280;45330;51.634;5.562;2023-02-28T10:29:40;103082.84;;;1.96;52.56
59513;BME280;45330;51.634;5.562;2023-02-28T10:32:10;103113.47;;;2.19;53.53
59513;BME280;45330;51.634;5.562;2023-02-28T10:34:37;103082.72;;;2.08;54.05
59513;BME280;45330;51.634;5.562;2023-02-28T10:37:03;103086.78;;;2.17;52.26
59513;BME280;45330;51.634;5.562;2023-02-28T10:39:36;103116.31;;;2.37;51.96
59513;BME280;45330;51.634;5.562;2023-02-28T10:42:03;103090.94;;;2.29;52.69
59513;BME280;45330;51.634;5.562;2023-02-28T10:44:28;103092.91;;;2.33;51.61
59513;BME280;45330;51.634;5.562;2023-02-28T10:46:54;103103.88;;;2.44;51.07
59513;BME280;45330;51.634;5.562;2023-02-28T10:49:26;103099.91;;;2.49;50.83
59513;BME280;45330;51.634;5.562;2023-02-28T10:51:55;103083.50;;;2.47;51.12
59513;BME280;45330;51.634;5.562;2023-02-28T10:54:26;103085.56;;;2.52;51.04
59513;BME280;45330;51.634;5.562;2023-02-28T11:00:16;103087.13;;;2.77;50.37
59513;BME280;45330;51.634;5.562;2023-02-28T11:02:41;103085.44;;;2.78;49.45
59513;BME280;45330;51.634;5.562;2023-02-28T11:05:29;103090.66;;;2.79;50.77
59513;BME280;45330;51.634;5.562;2023-02-28T11:07:59;103085.63;;;2.81;50.07
59513;BME280;45330;51.634;5.562;2023-02-28T11:10:30;103082.34;;;2.83;50.24
59513;BME280;45330;51.634;5.562;2023-02-28T11:13:00;103080.97;;;2.88;50.24
59513;BME280;45330;51.634;5.562;2023-02-28T11:15:33;103082.22;;;2.95;49.82
59513;BME280;45330;51.634;5.562;2023-02-28T11:18:20;103064.44;;;2.85;50.79
59513;BME280;45330;51.634;5.562;2023-02-28T11:20:49;103065.31;;;2.85;49.91
59513;BME280;45330;51.634;5.562;2023-02-28T11:23:16;103079.53;;;2.94;50.29
59513;BME280;45330;51.634;5.562;2023-02-28T11:25:55;103073.94;;;3.14;50.30
59513;BME280;45330;51.634;5.562;2023-02-28T11:28:34;103062.34;;;3.36;48.98
59513;BME280;45330;51.634;5.562;2023-02-28T11:33:44;103075.91;;;3.18;48.73
59513;BME280;45330;51.634;5.562;2023-02-28T11:36:31;103071.03;;;3.23;48.29
59513;BME280;45330;51.634;5.562;2023-02-28T11:39:00;103071.28;;;3.28;49.17
59513;BME280;45330;51.634;5.562;2023-02-28T11:41:52;103070.59;;;3.30;48.78
59513;BME280;45330;51.634;5.562;2023-02-28T11:46:55;103046.38;;;3.26;48.98
59513;BME280;45330;51.634;5.562;2023-02-28T11:55:00;103061.00;;;3.28;47.24
59513;BME280;45330;51.634;5.562;2023-02-28T12:00:19;103030.66;;;3.22;48.70
59513;BME280;45330;51.634;5.562;2023-02-28T12:02:58;103052.97;;;3.36;47.43
59513;BME280;45330;51.634;5.562;2023-02-28T12:05:41;103035.78;;;3.22;47.90
59513;BME280;45330;51.634;5.562;2023-02-28T12:16:36;103022.06;;;3.51;49.66
59513;BME280;45330;51.634;5.562;2023-02-28T12:19:21;103040.09;;;3.51;47.74
59513;BME280;45330;51.634;5.562;2023-02-28T12:27:13;103028.94;;;3.66;47.13
59513;BME280;45330;51.634;5.562;2023-02-28T12:29:47;103026.69;;;3.72;47.95
59513;BME280;45330;51.634;5.562;2023-02-28T12:34:49;103028.28;;;3.70;47.58
59513;BME280;45330;51.634;5.562;2023-02-28T12:37:25;103021.44;;;3.85;47.92
59513;BME280;45330;51.634;5.562;2023-02-28T12:40:00;103001.13;;;3.60;48.52
59513;BME280;45330;51.634;5.562;2023-02-28T12:42:34;102999.97;;;3.70;48.82
59513;BME280;45330;51.634;5.562;2023-02-28T12:45:10;103021.25;;;3.97;48.61
59513;BME280;45330;51.634;5.562;2023-02-28T12:47:40;103010.88;;;3.95;47.42
59513;BME280;45330;51.634;5.562;2023-02-28T12:50:09;102991.16;;;3.81;46.70
59513;BME280;45330;51.634;5.562;2023-02-28T12:52:41;103007.59;;;3.98;47.08
59513;BME280;45330;51.634;5.562;2023-02-28T12:55:31;103005.72;;;3.81;46.08
59513;BME280;45330;51.634;5.562;2023-02-28T13:00:45;103007.44;;;3.80;46.21
59513;BME280;45330;51.634;5.562;2023-02-28T13:04:19;102976.53;;;3.80;46.98
59513;BME280;45330;51.634;5.562;2023-02-28T13:09:11;102975.63;;;3.80;45.83
59513;BME280;45330;51.634;5.562;2023-02-28T13:11:40;102997.53;;;3.88;46.55
59513;BME280;45330;51.634;5.562;2023-02-28T13:14:18;102971.22;;;3.77;46.28
59513;BME280;45330;51.634;5.562;2023-02-28T13:17:00;102978.56;;;3.86;46.59
59513;BME280;45330;51.634;5.562;2023-02-28T13:19:30;102961.78;;;3.77;46.14
59513;BME280;45330;51.634;5.562;2023-02-28T13:21:56;102982.53;;;3.95;47.80
59513;BME280;45330;51.634;5.562;2023-02-28T13:29:34;102973.25;;;3.99;47.57
59513;BME280;45330;51.634;5.562;2023-02-28T13:34:35;102964.13;;;4.04;46.31
59513;BME280;45330;51.634;5.562;2023-02-28T13:39:56;102981.28;;;4.04;46.21
59513;BME280;45330;51.634;5.562;2023-02-28T13:47:32;102970.50;;;4.11;46.79
59513;BME280;45330;51.634;5.562;2023-02-28T13:58:36;102965.63;;;4.01;46.45
59513;BME280;45330;51.634;5.562;2023-02-28T14:01:35;102952.53;;;4.12;46.01
59513;BME280;45330;51.634;5.562;2023-02-28T14:07:02;102947.72;;;4.19;46.23
59513;BME280;45330;51.634;5.562;2023-02-28T14:09:33;102955.28;;;4.16;47.15
59513;BME280;45330;51.634;5.562;2023-02-28T14:15:23;102931.69;;;4.08;46.17
59513;BME280;45330;51.634;5.562;2023-02-28T14:17:54;102946.75;;;4.17;46.75
59513;BME280;45330;51.634;5.562;2023-02-28T14:20:21;102946.19;;;4.22;48.10
59513;BME280;45330;51.634;5.562;2023-02-28T14:23:04;102945.13;;;4.19;47.51
59513;BME280;45330;51.634;5.562;2023-02-28T14:25:40;102953.56;;;4.16;47.24
59513;BME280;45330;51.634;5.562;2023-02-28T14:31:06;102953.00;;;4.05;46.50
59513;BME280;45330;51.634;5.562;2023-02-28T14:33:46;102926.03;;;3.99;47.94
59513;BME280;45330;51.634;5.562;2023-02-28T14:36:26;102944.38;;;4.05;47.62
59513;BME280;45330;51.634;5.562;2023-02-28T14:38:55;102932.13;;;4.01;47.03
59513;BME280;45330;51.634;5.562;2023-02-28T14:41:30;102936.28;;;4.14;47.59
59513;BME280;45330;51.634;5.562;2023-02-28T14:43:58;102937.47;;;4.20;47.80
59513;BME280;45330;51.634;5.562;2023-02-28T14:46:36;102941.59;;;4.17;48.02
59513;BME280;45330;51.634;5.562;2023-02-28T14:49:12;102918.69;;;4.06;47.17
59513;BME280;45330;51.634;5.562;2023-02-28T14:51:38;102913.13;;;3.99;47.00
59513;BME280;45330;51.634;5.562;2023-02-28T14:54:04;102935.81;;;4.21;47.57
59513;BME280;45330;51.634;5.562;2023-02-28T14:56:37;102933.72;;;4.30;47.31
59513;BME280;45330;51.634;5.562;2023-02-28T14:59:04;102919.53;;;4.22;47.38
59513;BME280;45330;51.634;5.562;2023-02-28T15:01:30;102925.59;;;4.22;47.33